createdAt,value
2023-01-19T00:00:11.912Z,86.40
2023-01-19T00:01:12.290Z,86.51
2023-01-19T00:02:10.806Z,86.40
2023-01-19T00:03:11.241Z,86.29
2023-01-19T00:04:11.591Z,86.29
2023-01-19T00:05:11.099Z,86.29
2023-01-19T00:06:10.492Z,86.40
2023-01-19T00:07:10.955Z,86.61
2023-01-19T00:08:12.274Z,86.51
2023-01-19T00:09:11.635Z,86.29
2023-01-19T00:10:12.076Z,86.19
2023-01-19T00:11:10.480Z,86.29
2023-01-19T00:12:10.920Z,86.08
2023-01-19T00:13:11.300Z,85.98
2023-01-19T00:14:10.680Z,85.98
2023-01-19T00:15:11.115Z,85.94
2023-01-19T00:16:11.525Z,85.73
2023-01-19T00:17:11.845Z,85.63
2023-01-19T00:18:11.425Z,85.73
2023-01-19T00:19:10.661Z,85.63
2023-01-19T00:20:11.103Z,85.63
2023-01-19T00:21:10.441Z,85.63
2023-01-19T00:22:10.910Z,85.73
2023-01-19T00:23:10.226Z,85.73
2023-01-19T00:24:10.625Z,85.63
2023-01-19T00:25:12.016Z,85.83
2023-01-19T00:26:10.410Z,85.83
2023-01-19T00:27:11.771Z,85.94
2023-01-19T00:28:11.300Z,85.94
2023-01-19T00:29:10.684Z,86.25
2023-01-19T00:30:11.955Z,86.05
2023-01-19T00:31:11.370Z,85.94
2023-01-19T00:32:11.745Z,85.83
2023-01-19T00:33:11.126Z,85.83
2023-01-19T00:34:10.600Z,85.83
2023-01-19T00:35:11.940Z,85.83
2023-01-19T00:36:11.300Z,85.63
2023-01-19T00:37:11.746Z,85.73
2023-01-19T00:38:11.120Z,85.83
2023-01-19T00:39:10.603Z,85.94
2023-01-19T00:40:12.130Z,86.05
2023-01-19T00:41:11.327Z,86.19
2023-01-19T00:42:11.701Z,86.29
2023-01-19T00:43:11.061Z,86.40
2023-01-19T00:44:10.572Z,86.51
2023-01-19T00:45:10.886Z,86.40
2023-01-19T00:46:10.502Z,86.40
2023-01-19T00:47:10.777Z,86.61
2023-01-19T00:48:10.148Z,86.61
2023-01-19T00:49:10.575Z,86.29
2023-01-19T00:50:09.974Z,86.51
2023-01-19T00:51:11.369Z,86.61
2023-01-19T00:52:10.884Z,86.51
2023-01-19T00:53:11.182Z,86.61
2023-01-19T00:54:10.634Z,86.61
2023-01-19T00:55:10.041Z,86.51
2023-01-19T00:56:11.380Z,86.61
2023-01-19T00:57:10.799Z,86.61
2023-01-19T00:58:11.303Z,86.71
2023-01-19T00:59:10.684Z,86.71
2023-01-19T01:00:12.080Z,86.82
2023-01-19T01:01:10.558Z,86.82
2023-01-19T01:02:11.052Z,86.82
2023-01-19T01:03:10.380Z,86.92
2023-01-19T01:04:10.012Z,86.96
2023-01-19T01:05:10.129Z,86.82
2023-01-19T01:06:10.560Z,86.82
2023-01-19T01:07:10.908Z,86.71
2023-01-19T01:08:10.377Z,86.92
2023-01-19T01:09:09.792Z,86.85
2023-01-19T01:10:11.140Z,86.85
2023-01-19T01:11:11.579Z,86.92
2023-01-19T01:12:09.988Z,86.85
2023-01-19T01:13:20.955Z,86.96
2023-01-19T01:14:15.017Z,87.07
2023-01-19T01:15:11.175Z,87.17
2023-01-19T01:16:09.623Z,87.17
2023-01-19T01:17:11.006Z,87.27
2023-01-19T01:18:11.449Z,87.27
2023-01-19T01:19:09.850Z,87.27
2023-01-19T01:20:11.326Z,87.27
2023-01-19T01:21:09.595Z,87.38
2023-01-19T01:22:10.049Z,87.38
2023-01-19T01:23:11.415Z,87.38
2023-01-19T01:24:09.838Z,87.38
2023-01-19T01:25:11.282Z,87.38
2023-01-19T01:26:09.705Z,87.38
2023-01-19T01:27:11.051Z,87.38
2023-01-19T01:28:09.503Z,87.38
2023-01-19T01:29:09.954Z,87.38
2023-01-19T01:30:10.405Z,87.48
2023-01-19T01:31:09.746Z,87.48
2023-01-19T01:32:10.160Z,87.48
2023-01-19T01:33:09.525Z,87.38
2023-01-19T01:34:09.950Z,87.27
2023-01-19T01:35:09.334Z,87.27
2023-01-19T01:36:11.025Z,87.27
2023-01-19T01:37:10.177Z,87.17
2023-01-19T01:38:09.603Z,87.17
2023-01-19T01:39:10.974Z,87.17
2023-01-19T01:40:10.343Z,87.17
2023-01-19T01:41:10.710Z,87.07
2023-01-19T01:42:09.721Z,87.17
2023-01-19T01:43:09.707Z,87.27
2023-01-19T01:44:10.146Z,87.27
2023-01-19T01:45:09.542Z,87.38
2023-01-19T01:46:10.023Z,87.27
2023-01-19T01:47:09.406Z,87.38
2023-01-19T01:48:09.951Z,87.27
2023-01-19T01:49:09.264Z,87.27
2023-01-19T01:50:09.695Z,87.27
2023-01-19T01:51:09.075Z,87.38
2023-01-19T01:52:09.523Z,87.38
2023-01-19T01:53:10.239Z,87.48
2023-01-19T01:54:09.416Z,87.48
2023-01-19T01:55:09.813Z,87.48
2023-01-19T01:56:09.210Z,87.48
2023-01-19T01:57:09.660Z,87.38
2023-01-19T01:58:09.065Z,87.27
2023-01-19T01:59:09.571Z,87.38
2023-01-19T02:00:10.819Z,87.38
2023-01-19T02:01:09.424Z,87.38
2023-01-19T02:02:09.800Z,87.38
2023-01-19T02:03:09.219Z,87.48
2023-01-19T02:04:10.575Z,87.59
2023-01-19T02:05:09.137Z,87.59
2023-01-19T02:06:09.487Z,87.59
2023-01-19T02:07:09.886Z,87.48
2023-01-19T02:08:10.225Z,87.38
2023-01-19T02:09:09.737Z,87.38
2023-01-19T02:10:14.381Z,87.27
2023-01-19T02:11:09.575Z,87.38
2023-01-19T02:12:12.030Z,87.27
2023-01-19T02:13:09.446Z,87.27
2023-01-19T02:14:08.833Z,87.27
2023-01-19T02:15:09.236Z,87.17
2023-01-19T02:16:09.730Z,87.17
2023-01-19T02:17:09.095Z,87.17
2023-01-19T02:18:11.595Z,87.38
2023-01-19T02:19:08.961Z,87.38
2023-01-19T02:20:10.404Z,87.38
2023-01-19T02:21:08.738Z,87.48
2023-01-19T02:22:09.332Z,87.48
2023-01-19T02:23:09.622Z,87.38
2023-01-19T02:24:09.974Z,87.48
2023-01-19T02:25:10.511Z,87.48
2023-01-19T02:26:09.825Z,87.38
2023-01-19T02:27:09.290Z,87.38
2023-01-19T02:28:09.845Z,87.27
2023-01-19T02:29:09.125Z,87.38
2023-01-19T02:30:09.570Z,87.63
2023-01-19T02:31:08.952Z,87.84
2023-01-19T02:32:10.346Z,87.94
2023-01-19T02:33:08.787Z,87.94
2023-01-19T02:34:09.256Z,87.94
2023-01-19T02:35:09.655Z,88.04
2023-01-19T02:36:09.055Z,87.94
2023-01-19T02:37:09.498Z,88.01
2023-01-19T02:38:08.905Z,87.90
2023-01-19T02:39:09.366Z,87.80
2023-01-19T02:40:08.766Z,87.80
2023-01-19T02:41:09.209Z,87.80
2023-01-19T02:42:08.590Z,87.69
2023-01-19T02:43:09.030Z,87.69
2023-01-19T02:44:08.416Z,87.80
2023-01-19T02:45:09.293Z,87.80
2023-01-19T02:46:09.381Z,87.80
2023-01-19T02:47:09.686Z,87.90
2023-01-19T02:48:10.137Z,87.90
2023-01-19T02:49:09.624Z,87.90
2023-01-19T02:50:09.045Z,87.90
2023-01-19T02:51:08.496Z,87.90
2023-01-19T02:52:08.715Z,87.80
2023-01-19T02:53:09.158Z,87.80
2023-01-19T02:54:08.535Z,87.69
2023-01-19T02:55:08.975Z,87.80
2023-01-19T02:56:09.339Z,87.80
2023-01-19T02:57:08.898Z,87.80
2023-01-19T02:58:08.225Z,87.90
2023-01-19T02:59:08.703Z,87.90
2023-01-19T03:00:10.104Z,87.80
2023-01-19T03:01:09.686Z,87.59
2023-01-19T03:02:09.132Z,87.48
2023-01-19T03:03:09.470Z,87.48
2023-01-19T03:04:08.845Z,87.69
2023-01-19T03:05:09.186Z,87.69
2023-01-19T03:06:08.643Z,87.69
2023-01-19T03:07:09.083Z,87.80
2023-01-19T03:08:08.491Z,87.90
2023-01-19T03:09:08.910Z,87.90
2023-01-19T03:10:10.389Z,87.90
2023-01-19T03:11:08.720Z,87.80
2023-01-19T03:12:09.155Z,87.80
2023-01-19T03:13:09.598Z,87.69
2023-01-19T03:14:09.031Z,87.59
2023-01-19T03:15:09.310Z,87.48
2023-01-19T03:16:08.850Z,87.48
2023-01-19T03:17:09.245Z,87.48
2023-01-19T03:18:08.644Z,87.38
2023-01-19T03:19:09.987Z,87.13
2023-01-19T03:20:09.400Z,87.02
2023-01-19T03:21:09.795Z,87.13
2023-01-19T03:22:08.271Z,87.23
2023-01-19T03:23:08.752Z,87.23
2023-01-19T03:24:09.137Z,87.23
2023-01-19T03:25:08.542Z,86.92
2023-01-19T03:26:07.933Z,87.02
2023-01-19T03:27:09.321Z,87.23
2023-01-19T03:28:08.830Z,87.13
2023-01-19T03:29:09.255Z,87.13
2023-01-19T03:30:08.643Z,87.13
2023-01-19T03:31:09.182Z,87.23
2023-01-19T03:32:08.511Z,87.23
2023-01-19T03:33:10.339Z,87.27
2023-01-19T03:34:09.340Z,87.23
2023-01-19T03:35:08.740Z,87.59
2023-01-19T03:36:09.168Z,87.69
2023-01-19T03:37:08.688Z,87.80
2023-01-19T03:38:08.080Z,87.69
2023-01-19T03:39:08.610Z,87.59
2023-01-19T03:40:09.896Z,87.38
2023-01-19T03:41:08.386Z,87.48
2023-01-19T03:42:09.804Z,87.38
2023-01-19T03:43:08.259Z,87.38
2023-01-19T03:44:08.718Z,87.48
2023-01-19T03:45:08.639Z,87.80
2023-01-19T03:46:09.571Z,87.94
2023-01-19T03:47:08.975Z,87.90
2023-01-19T03:48:09.435Z,87.80
2023-01-19T03:49:09.910Z,87.84
2023-01-19T03:50:11.491Z,87.69
2023-01-19T03:51:07.751Z,87.69
2023-01-19T03:52:09.195Z,87.73
2023-01-19T03:53:08.666Z,87.73
2023-01-19T03:54:09.211Z,87.73
2023-01-19T03:55:10.587Z,87.69
2023-01-19T03:56:10.054Z,87.59
2023-01-19T03:57:08.542Z,87.73
2023-01-19T03:58:07.537Z,87.73
2023-01-19T03:59:10.015Z,87.73
2023-01-19T04:00:09.520Z,87.84
2023-01-19T04:01:09.105Z,87.84
2023-01-19T04:02:08.455Z,87.84
2023-01-19T04:03:09.871Z,87.73
2023-01-19T04:04:09.257Z,87.73
2023-01-19T04:05:09.671Z,87.84
2023-01-19T04:06:08.163Z,87.84
2023-01-19T04:07:09.656Z,87.84
2023-01-19T04:08:09.055Z,87.73
2023-01-19T04:09:08.541Z,87.73
2023-01-19T04:10:09.974Z,87.63
2023-01-19T04:11:09.379Z,87.63
2023-01-19T04:12:10.101Z,87.63
2023-01-19T04:13:08.341Z,87.52
2023-01-19T04:14:08.703Z,87.42
2023-01-19T04:15:09.173Z,87.38
2023-01-19T04:16:08.713Z,87.27
2023-01-19T04:17:08.789Z,87.31
2023-01-19T04:18:08.232Z,87.42
2023-01-19T04:19:07.576Z,87.52
2023-01-19T04:20:08.040Z,87.48
2023-01-19T04:21:08.485Z,87.38
2023-01-19T04:22:07.876Z,87.38
2023-01-19T04:23:07.302Z,87.27
2023-01-19T04:24:08.768Z,87.27
2023-01-19T04:25:09.261Z,87.17
2023-01-19T04:26:09.630Z,87.17
2023-01-19T04:27:08.096Z,87.17
2023-01-19T04:28:09.502Z,87.27
2023-01-19T04:29:07.951Z,87.27
2023-01-19T04:30:08.401Z,87.17
2023-01-19T04:31:08.810Z,86.96
2023-01-19T04:32:08.230Z,86.85
2023-01-19T04:33:08.664Z,86.44
2023-01-19T04:34:08.098Z,86.44
2023-01-19T04:35:09.469Z,86.54
2023-01-19T04:36:10.971Z,86.54
2023-01-19T04:37:08.340Z,86.33
2023-01-19T04:38:09.745Z,86.29
2023-01-19T04:39:10.145Z,86.29
2023-01-19T04:40:09.626Z,86.29
2023-01-19T04:41:08.987Z,86.40
2023-01-19T04:42:08.379Z,86.51
2023-01-19T04:43:07.768Z,86.40
2023-01-19T04:44:09.045Z,86.29
2023-01-19T04:45:10.012Z,86.29
2023-01-19T04:46:08.059Z,86.29
2023-01-19T04:47:08.493Z,86.19
2023-01-19T04:48:07.885Z,86.19
2023-01-19T04:49:10.294Z,86.19
2023-01-19T04:50:07.708Z,86.19
2023-01-19T04:51:11.791Z,86.19
2023-01-19T04:52:07.566Z,85.98
2023-01-19T04:53:08.016Z,85.83
2023-01-19T04:54:08.493Z,85.83
2023-01-19T04:55:08.908Z,85.63
2023-01-19T04:56:10.332Z,85.52
2023-01-19T04:57:10.800Z,85.52
2023-01-19T04:58:07.169Z,85.52
2023-01-19T04:59:08.641Z,85.42
2023-01-19T05:00:08.054Z,85.42
2023-01-19T05:01:08.547Z,85.31
2023-01-19T05:02:08.938Z,85.52
2023-01-19T05:03:08.393Z,85.31
2023-01-19T05:04:08.723Z,85.21
2023-01-19T05:05:09.151Z,85.21
2023-01-19T05:06:09.574Z,85.42
2023-01-19T05:07:08.040Z,85.42
2023-01-19T05:08:08.502Z,85.83
2023-01-19T05:09:08.916Z,85.94
2023-01-19T05:10:09.320Z,85.63
2023-01-19T05:11:08.786Z,85.52
2023-01-19T05:12:07.823Z,85.83
2023-01-19T05:13:08.267Z,85.73
2023-01-19T05:14:07.695Z,85.42
2023-01-19T05:15:08.134Z,85.42
2023-01-19T05:16:08.632Z,85.63
2023-01-19T05:17:10.100Z,85.31
2023-01-19T05:18:06.404Z,85.42
2023-01-19T05:19:07.885Z,85.31
2023-01-19T05:20:09.386Z,85.31
2023-01-19T05:21:08.790Z,85.52
2023-01-19T05:22:09.270Z,85.42
2023-01-19T05:23:08.674Z,85.31
2023-01-19T05:24:08.051Z,85.00
2023-01-19T05:25:08.479Z,85.11
2023-01-19T05:26:10.473Z,85.31
2023-01-19T05:27:09.411Z,85.31
2023-01-19T05:28:07.745Z,85.11
2023-01-19T05:29:08.232Z,85.21
2023-01-19T05:30:11.780Z,85.11
2023-01-19T05:31:09.274Z,85.42
2023-01-19T05:32:08.524Z,85.31
2023-01-19T05:33:08.985Z,85.11
2023-01-19T05:34:08.649Z,85.11
2023-01-19T05:35:07.794Z,85.52
2023-01-19T05:36:08.256Z,85.83
2023-01-19T05:37:08.690Z,85.63
2023-01-19T05:38:08.104Z,86.05
2023-01-19T05:39:08.532Z,86.15
2023-01-19T05:40:12.186Z,86.25
2023-01-19T05:41:06.295Z,85.83
2023-01-19T05:42:08.839Z,85.83
2023-01-19T05:43:08.200Z,85.31
2023-01-19T05:44:08.661Z,85.73
2023-01-19T05:45:08.024Z,85.83
2023-01-19T05:46:08.553Z,85.83
2023-01-19T05:47:07.866Z,85.83
2023-01-19T05:48:09.477Z,86.05
2023-01-19T05:49:09.142Z,86.05
2023-01-19T05:50:08.486Z,86.25
2023-01-19T05:51:08.926Z,86.15
2023-01-19T05:52:08.326Z,86.05
2023-01-19T05:53:08.748Z,85.94
2023-01-19T05:54:09.137Z,85.94
2023-01-19T05:55:08.525Z,86.15
2023-01-19T05:56:07.927Z,86.15
2023-01-19T05:57:08.443Z,86.15
2023-01-19T05:58:07.727Z,86.05
2023-01-19T05:59:09.171Z,86.15
2023-01-19T06:00:09.488Z,86.05
2023-01-19T06:01:09.047Z,86.05
2023-01-19T06:02:08.423Z,86.05
2023-01-19T06:03:08.850Z,85.73
2023-01-19T06:04:08.141Z,85.52
2023-01-19T06:05:08.556Z,85.49
2023-01-19T06:06:07.927Z,85.49
2023-01-19T06:07:08.325Z,85.38
2023-01-19T06:08:08.727Z,85.27
2023-01-19T06:09:09.136Z,85.49
2023-01-19T06:10:09.530Z,85.27
2023-01-19T06:11:07.875Z,85.49
2023-01-19T06:12:06.215Z,85.59
2023-01-19T06:13:06.654Z,85.49
2023-01-19T06:14:06.066Z,85.59
2023-01-19T06:15:06.915Z,85.69
2023-01-19T06:16:05.941Z,85.17
2023-01-19T06:17:06.338Z,85.27
2023-01-19T06:18:05.716Z,85.49
2023-01-19T06:19:07.076Z,85.49
2023-01-19T06:20:06.585Z,86.11
2023-01-19T06:21:09.218Z,85.90
2023-01-19T06:22:06.410Z,86.11
2023-01-19T06:23:05.781Z,86.43
2023-01-19T06:24:06.166Z,86.43
2023-01-19T06:25:05.619Z,86.74
2023-01-19T06:26:06.015Z,87.26
2023-01-19T06:27:06.858Z,87.68
2023-01-19T06:28:05.826Z,88.09
2023-01-19T06:29:06.273Z,88.20
2023-01-19T06:30:05.655Z,88.55
2023-01-19T06:31:06.120Z,88.97
2023-01-19T06:32:05.511Z,89.39
2023-01-19T06:33:06.427Z,89.70
2023-01-19T06:34:06.331Z,90.12
2023-01-19T06:35:05.685Z,90.33
2023-01-19T06:36:06.090Z,90.85
2023-01-19T06:37:05.467Z,91.47
2023-01-19T06:38:05.886Z,92.00
2023-01-19T06:39:07.238Z,92.41
2023-01-19T06:40:05.728Z,92.73
2023-01-19T06:41:06.180Z,93.15
2023-01-19T06:42:05.595Z,93.57
2023-01-19T06:43:05.997Z,94.02
2023-01-19T06:44:05.389Z,94.44
2023-01-19T06:45:06.826Z,94.86
2023-01-19T06:46:06.306Z,95.17
2023-01-19T06:47:14.564Z,95.38
2023-01-19T06:48:07.077Z,95.59
2023-01-19T06:49:05.438Z,95.70
2023-01-19T06:50:05.892Z,95.95
2023-01-19T06:51:06.883Z,96.16
2023-01-19T06:52:05.700Z,96.47
2023-01-19T06:53:06.141Z,96.68
2023-01-19T06:54:05.520Z,97.00
2023-01-19T06:55:05.951Z,97.20
2023-01-19T06:56:05.344Z,97.31
2023-01-19T06:57:06.353Z,97.41
2023-01-19T06:58:05.230Z,97.62
2023-01-19T06:59:05.594Z,97.72
2023-01-19T07:00:07.005Z,97.72
2023-01-19T07:01:05.593Z,97.83
2023-01-19T07:02:27.510Z,98.04
2023-01-19T07:03:06.933Z,98.25
2023-01-19T07:04:05.803Z,98.56
2023-01-19T07:05:05.114Z,98.67
2023-01-19T07:06:05.576Z,98.88
2023-01-19T07:07:06.022Z,99.08
2023-01-19T07:08:05.404Z,99.29
2023-01-19T07:09:07.415Z,99.51
2023-01-19T07:10:05.241Z,99.71
2023-01-19T07:11:25.420Z,99.92
2023-01-19T07:12:06.079Z,99.99
2023-01-19T07:13:05.569Z,99.99
2023-01-19T07:14:04.932Z,99.99
2023-01-19T07:15:06.381Z,99.99
2023-01-19T07:16:07.333Z,99.99
2023-01-19T07:17:05.179Z,99.99
2023-01-19T07:18:05.626Z,99.99
2023-01-19T07:19:04.980Z,99.99
2023-01-19T07:20:05.470Z,99.99
2023-01-19T07:21:06.319Z,99.99
2023-01-19T07:22:05.242Z,99.99
2023-01-19T07:23:05.693Z,99.99
2023-01-19T07:24:05.067Z,99.99
2023-01-19T07:25:05.488Z,99.99
2023-01-19T07:26:04.970Z,99.99
2023-01-19T07:27:06.368Z,99.99
2023-01-19T07:28:05.753Z,99.99
2023-01-19T07:29:05.198Z,99.99
2023-01-19T07:30:05.666Z,99.99
2023-01-19T07:31:05.112Z,99.99
2023-01-19T07:32:06.385Z,99.99
2023-01-19T07:33:06.807Z,99.99
2023-01-19T07:34:06.446Z,99.99
2023-01-19T07:35:05.744Z,99.99
2023-01-19T07:36:05.218Z,99.99
2023-01-19T07:37:04.634Z,99.99
2023-01-19T07:38:06.404Z,99.99
2023-01-19T07:39:05.645Z,99.99
2023-01-19T07:40:04.880Z,99.99
2023-01-19T07:41:05.330Z,99.99
2023-01-19T07:42:04.725Z,99.99
2023-01-19T07:43:05.162Z,99.99
2023-01-19T07:44:07.212Z,99.99
2023-01-19T07:45:05.007Z,99.99
2023-01-19T07:46:05.521Z,99.99
2023-01-19T07:47:04.873Z,99.99
2023-01-19T07:48:05.345Z,99.99
2023-01-19T07:49:04.745Z,99.99
2023-01-19T07:50:06.868Z,99.99
2023-01-19T07:51:04.591Z,99.99
2023-01-19T07:52:05.991Z,99.99
2023-01-19T07:53:04.452Z,99.99
2023-01-19T07:54:05.015Z,99.99
2023-01-19T07:55:05.367Z,99.99
2023-01-19T07:56:06.673Z,99.99
2023-01-19T07:57:05.271Z,99.99
2023-01-19T07:58:04.712Z,99.99
2023-01-19T07:59:05.175Z,99.99
2023-01-19T08:00:04.576Z,99.99
2023-01-19T08:01:05.035Z,99.99
2023-01-19T08:02:06.627Z,99.99
2023-01-19T08:03:05.158Z,99.99
2023-01-19T08:04:04.316Z,99.99
2023-01-19T08:05:04.770Z,99.99
2023-01-19T08:06:05.320Z,99.99
2023-01-19T08:07:04.696Z,99.99
2023-01-19T08:08:06.356Z,99.99
2023-01-19T08:09:04.551Z,99.99
2023-01-19T08:10:05.051Z,99.99
2023-01-19T08:11:04.465Z,99.99
2023-01-19T08:12:04.937Z,99.99
2023-01-19T08:13:05.313Z,99.99
2023-01-19T08:14:08.037Z,99.99
2023-01-19T08:15:05.140Z,99.99
2023-01-19T08:16:05.647Z,99.99
2023-01-19T08:17:05.083Z,99.99
2023-01-19T08:18:04.500Z,99.99
2023-01-19T08:19:05.020Z,99.99
2023-01-19T08:20:06.499Z,99.99
2023-01-19T08:21:04.836Z,99.99
2023-01-19T08:22:04.236Z,99.99
2023-01-19T08:23:05.070Z,99.99
2023-01-19T08:24:04.139Z,99.99
2023-01-19T08:25:04.607Z,99.99
2023-01-19T08:26:06.479Z,99.99
2023-01-19T08:27:04.414Z,99.99
2023-01-19T08:28:04.864Z,99.99
2023-01-19T08:29:04.405Z,99.99
2023-01-19T08:30:05.697Z,99.99
2023-01-19T08:31:19.006Z,99.99
2023-01-19T08:32:06.453Z,99.99
2023-01-19T08:33:04.352Z,99.99
2023-01-19T08:34:04.435Z,99.99
2023-01-19T08:35:03.877Z,99.99
2023-01-19T08:36:04.327Z,99.99
2023-01-19T08:37:04.805Z,99.99
2023-01-19T08:38:04.332Z,99.99
2023-01-19T08:39:04.640Z,99.99
2023-01-19T08:40:04.051Z,99.99
2023-01-19T08:41:04.679Z,99.99
2023-01-19T08:42:03.939Z,99.99
2023-01-19T08:43:07.265Z,99.99
2023-01-19T08:44:03.743Z,99.99
2023-01-19T08:45:04.210Z,99.99
2023-01-19T08:46:05.617Z,99.99
2023-01-19T08:47:04.057Z,99.99
2023-01-19T08:48:04.500Z,99.99
2023-01-19T08:49:04.173Z,99.99
2023-01-19T08:50:04.295Z,99.99
2023-01-19T08:51:03.708Z,99.99
2023-01-19T08:52:04.095Z,99.99
2023-01-19T08:53:04.541Z,99.99
2023-01-19T08:54:03.939Z,99.99
2023-01-19T08:55:04.421Z,99.99
2023-01-19T08:56:03.742Z,99.99
2023-01-19T08:57:04.170Z,99.99
2023-01-19T08:58:03.845Z,99.99
2023-01-19T08:59:09.994Z,99.99
2023-01-19T09:00:06.656Z,99.99
2023-01-19T09:01:04.347Z,99.99
2023-01-19T09:02:04.296Z,99.99
2023-01-19T09:03:04.288Z,99.99
2023-01-19T09:04:04.071Z,99.99
2023-01-19T09:05:04.508Z,99.99
2023-01-19T09:06:03.946Z,99.99
2023-01-19T09:08:03.987Z,99.99
2023-01-19T09:09:04.169Z,99.99
2023-01-19T09:10:03.633Z,99.99
2023-01-19T09:11:04.024Z,99.99
2023-01-19T09:12:03.483Z,99.99
2023-01-19T09:13:03.876Z,99.99
2023-01-19T09:14:05.276Z,99.99
2023-01-19T09:15:04.676Z,99.99
2023-01-19T09:16:04.250Z,99.99
2023-01-19T09:17:03.556Z,99.99
2023-01-19T09:18:03.980Z,99.99
2023-01-19T09:19:03.372Z,99.99
2023-01-19T09:20:03.791Z,99.99
2023-01-19T09:21:04.239Z,99.99
2023-01-19T09:22:03.614Z,99.99
2023-01-19T09:23:04.026Z,99.99
2023-01-19T09:24:03.414Z,99.99
2023-01-19T09:25:03.814Z,99.99
2023-01-19T09:26:04.226Z,99.99
2023-01-19T09:27:03.624Z,99.99
2023-01-19T09:28:04.210Z,99.99
2023-01-19T09:29:03.456Z,99.99
2023-01-19T09:30:03.887Z,99.99
2023-01-19T09:31:03.304Z,99.99
2023-01-19T09:32:06.057Z,99.99
2023-01-19T09:33:04.005Z,99.99
2023-01-19T09:34:03.395Z,99.99
2023-01-19T09:35:03.789Z,99.99
2023-01-19T09:36:03.161Z,99.99
2023-01-19T09:37:04.606Z,99.99
2023-01-19T09:38:04.291Z,99.99
2023-01-19T09:39:03.455Z,99.99
2023-01-19T09:40:03.842Z,99.99
2023-01-19T09:41:03.238Z,99.89
2023-01-19T09:42:03.665Z,99.89
2023-01-19T09:43:03.018Z,99.79
2023-01-19T09:44:03.535Z,99.79
2023-01-19T09:45:03.966Z,99.68
2023-01-19T09:46:03.405Z,99.68
2023-01-19T09:47:03.710Z,99.57
2023-01-19T09:48:03.349Z,99.47
2023-01-19T09:49:03.581Z,99.37
2023-01-19T09:50:02.974Z,99.37
2023-01-19T09:51:03.388Z,99.32
2023-01-19T09:52:03.804Z,99.32
2023-01-19T09:53:03.367Z,99.22
2023-01-19T09:54:03.693Z,99.22
2023-01-19T09:55:03.110Z,99.11
2023-01-19T09:56:03.469Z,98.80
2023-01-19T09:57:03.825Z,98.69
2023-01-19T09:58:03.508Z,98.59
2023-01-19T09:59:03.693Z,98.49
2023-01-19T10:00:03.085Z,98.28
2023-01-19T10:01:03.575Z,98.18
2023-01-19T10:02:02.955Z,98.18
2023-01-19T10:03:03.736Z,98.07
2023-01-19T10:04:02.731Z,97.97
2023-01-19T10:05:03.164Z,97.97
2023-01-19T10:06:03.578Z,98.07
2023-01-19T10:07:02.966Z,98.07
2023-01-19T10:08:03.800Z,97.97
2023-01-19T10:09:02.745Z,97.97
2023-01-19T10:10:03.167Z,97.86
2023-01-19T10:11:03.622Z,97.75
2023-01-19T10:12:02.975Z,97.65
2023-01-19T10:13:04.342Z,97.75
2023-01-19T10:14:02.747Z,97.55
2023-01-19T10:15:03.140Z,97.55
2023-01-19T10:16:03.604Z,97.55
2023-01-19T10:17:03.207Z,97.55
2023-01-19T10:18:03.702Z,97.55
2023-01-19T10:19:02.706Z,97.65
2023-01-19T10:20:03.175Z,97.65
2023-01-19T10:21:04.627Z,97.75
2023-01-19T10:22:02.956Z,97.86
2023-01-19T10:23:03.997Z,97.97
2023-01-19T10:24:05.671Z,97.97
2023-01-19T10:25:04.080Z,97.97
2023-01-19T10:26:02.525Z,98.07
2023-01-19T10:27:02.924Z,98.07
2023-01-19T10:28:03.345Z,98.07
2023-01-19T10:29:02.695Z,98.07
2023-01-19T10:30:03.164Z,98.18
2023-01-19T10:31:02.617Z,98.28
2023-01-19T10:32:02.973Z,98.38
2023-01-19T10:33:03.766Z,98.38
2023-01-19T10:34:02.664Z,98.49
2023-01-19T10:35:03.107Z,98.59
2023-01-19T10:36:02.441Z,98.59
2023-01-19T10:37:02.922Z,98.69
2023-01-19T10:38:03.251Z,98.80
2023-01-19T10:39:02.629Z,98.69
2023-01-19T10:40:02.981Z,98.80
2023-01-19T10:41:02.350Z,98.69
2023-01-19T10:42:02.789Z,98.59
2023-01-19T10:43:03.764Z,98.59
2023-01-19T10:44:02.573Z,98.49
2023-01-19T10:45:02.963Z,98.38
2023-01-19T10:46:03.344Z,98.38
2023-01-19T10:47:03.674Z,98.28
2023-01-19T10:48:03.061Z,98.18
2023-01-19T10:49:02.437Z,98.13
2023-01-19T10:50:03.920Z,98.07
2023-01-19T10:51:02.306Z,97.92
2023-01-19T10:52:03.574Z,97.81
2023-01-19T10:53:03.465Z,97.71
2023-01-19T10:54:02.459Z,97.71
2023-01-19T10:55:02.806Z,97.50
2023-01-19T10:56:02.121Z,97.50
2023-01-19T10:57:02.768Z,97.50
2023-01-19T10:58:02.914Z,97.40
2023-01-19T10:59:03.306Z,97.40
2023-01-19T11:00:03.682Z,97.40
2023-01-19T11:01:03.110Z,97.40
2023-01-19T11:02:02.655Z,97.30
2023-01-19T11:03:03.493Z,97.30
2023-01-19T11:04:02.268Z,97.30
2023-01-19T11:05:03.530Z,97.30
2023-01-19T11:06:01.946Z,97.30
2023-01-19T11:07:02.316Z,97.19
2023-01-19T11:08:02.710Z,97.19
2023-01-19T11:09:02.594Z,96.98
2023-01-19T11:10:02.465Z,97.09
2023-01-19T11:11:01.851Z,97.09
2023-01-19T11:12:02.241Z,97.30
2023-01-19T11:13:03.217Z,97.40
2023-01-19T11:14:01.956Z,97.40
2023-01-19T11:15:02.411Z,97.50
2023-01-19T11:16:02.755Z,97.71
2023-01-19T11:17:02.063Z,97.81
2023-01-19T11:18:02.473Z,97.92
2023-01-19T11:19:01.803Z,98.02
2023-01-19T11:20:02.215Z,98.13
2023-01-19T11:21:02.630Z,98.13
2023-01-19T11:22:01.969Z,98.13
2023-01-19T11:23:02.555Z,98.02
2023-01-19T11:24:02.711Z,98.02
2023-01-19T11:25:02.029Z,98.02
2023-01-19T11:26:02.429Z,98.02
2023-01-19T11:27:01.795Z,98.13
2023-01-19T11:28:02.224Z,98.13
2023-01-19T11:29:02.532Z,98.02
2023-01-19T11:30:01.867Z,98.02
2023-01-19T11:31:02.344Z,98.02
2023-01-19T11:32:02.551Z,98.02
2023-01-19T11:33:02.425Z,98.02
2023-01-19T11:34:02.325Z,98.02
2023-01-19T11:35:01.692Z,97.92
2023-01-19T11:36:02.066Z,97.92
2023-01-19T11:37:02.505Z,97.81
2023-01-19T11:38:01.791Z,97.81
2023-01-19T11:39:02.210Z,97.67
2023-01-19T11:40:01.547Z,97.56
2023-01-19T11:41:01.911Z,97.14
2023-01-19T11:42:02.244Z,96.94
2023-01-19T11:43:02.981Z,96.83
2023-01-19T11:44:02.941Z,96.52
2023-01-19T11:45:02.387Z,96.31
2023-01-19T11:46:02.714Z,96.06
2023-01-19T11:47:02.104Z,95.85
2023-01-19T11:48:02.883Z,95.64
2023-01-19T11:49:01.851Z,95.43
2023-01-19T11:50:02.244Z,95.43
2023-01-19T11:51:01.725Z,95.23
2023-01-19T11:52:01.988Z,95.12
2023-01-19T11:53:01.314Z,95.02
2023-01-19T11:54:01.707Z,94.81
2023-01-19T11:55:02.100Z,94.70
2023-01-19T11:56:01.414Z,94.70
2023-01-19T11:57:01.836Z,94.45
2023-01-19T11:58:02.617Z,94.45
2023-01-19T11:59:01.519Z,94.56
2023-01-19T12:00:01.886Z,94.45
2023-01-19T12:01:01.241Z,94.24
2023-01-19T12:02:01.645Z,94.24
2023-01-19T12:03:02.230Z,93.93
2023-01-19T12:04:01.301Z,93.93
2023-01-19T12:05:01.669Z,93.93
2023-01-19T12:06:02.066Z,93.83
2023-01-19T12:07:01.383Z,93.83
2023-01-19T12:08:04.085Z,93.93
2023-01-19T12:09:01.130Z,94.04
2023-01-19T12:10:02.415Z,94.14
2023-01-19T12:11:01.870Z,94.04
2023-01-19T12:12:02.166Z,94.24
2023-01-19T12:13:01.553Z,93.83
2023-01-19T12:14:02.062Z,93.93
2023-01-19T12:15:01.242Z,93.99
2023-01-19T12:16:01.604Z,93.79
2023-01-19T12:17:01.980Z,93.68
2023-01-19T12:18:01.689Z,93.89
2023-01-19T12:19:01.677Z,93.99
2023-01-19T12:20:01.153Z,93.89
2023-01-19T12:21:03.838Z,93.68
2023-01-19T12:22:01.750Z,93.58
2023-01-19T12:23:02.027Z,93.58
2023-01-19T12:24:01.503Z,93.37
2023-01-19T12:25:01.931Z,93.16
2023-01-19T12:26:01.166Z,93.37
2023-01-19T12:27:01.522Z,93.37
2023-01-19T12:28:01.819Z,93.05
2023-01-19T12:29:02.190Z,93.16
2023-01-19T12:30:02.593Z,93.27
2023-01-19T12:31:01.049Z,93.05
2023-01-19T12:32:02.347Z,93.01
2023-01-19T12:33:01.662Z,92.80
2023-01-19T12:34:00.968Z,92.80
2023-01-19T12:35:01.354Z,92.80
2023-01-19T12:36:01.786Z,92.60
2023-01-19T12:37:01.960Z,92.39
2023-01-19T12:38:02.351Z,92.49
2023-01-19T12:39:00.709Z,92.29
2023-01-19T12:40:01.069Z,92.18
2023-01-19T12:41:02.394Z,92.39
2023-01-19T12:42:00.816Z,92.45
2023-01-19T12:43:02.093Z,92.45
2023-01-19T12:44:02.605Z,92.14
2023-01-19T12:45:00.860Z,91.89
2023-01-19T12:46:01.233Z,91.02
2023-01-19T12:47:01.681Z,90.29
2023-01-19T12:48:00.899Z,90.29
2023-01-19T12:49:01.244Z,90.50
2023-01-19T12:50:01.575Z,90.04
2023-01-19T12:51:00.931Z,89.62
2023-01-19T12:52:01.291Z,89.06
2023-01-19T12:53:00.640Z,88.75